Time;durP1;ratioP1;P1;durP2;ratioP2;P2;SDS_P1;SDS_P2;PMS_P1;PMS_P2;Temp;Humidity;BMP_temperature;BMP_pressure;BME280_temperature;BME280_humidity;BME280_pressure;Samples;Min_cycle;Max_cycle;Signal;HPM_P1;HPM_P2
2021/09/20 00:01:50;;;;;;;;;26.33;25.00;25.20;43.50;;;;;;5014622;28;8866;-70
2021/09/20 00:04:16;;;;;;;;;30.00;30.00;25.10;43.40;;;;;;5013593;28;8851;-68
2021/09/20 00:06:41;;;;;;;;;25.33;25.33;25.10;43.00;;;;;;5014835;28;8776;-70
2021/09/20 00:09:09;;;;;;;;;27.67;27.67;25.20;43.20;;;;;;5013596;28;8967;-71
2021/09/20 00:11:34;;;;;;;;;24.00;24.00;25.10;43.20;;;;;;5014758;28;8834;-68
2021/09/20 00:14:00;;;;;;;;;27.00;27.00;25.20;43.40;;;;;;5014435;28;8761;-68
2021/09/20 00:16:26;;;;;;;;;25.67;25.67;25.30;44.00;;;;;;5014452;28;8796;-71
2021/09/20 00:18:52;;;;;;;;;27.33;27.33;25.30;43.60;;;;;;5012070;28;8780;-66
2021/09/20 00:21:18;;;;;;;;;28.00;28.00;25.30;42.90;;;;;;5013985;28;8866;-68
2021/09/20 00:23:44;;;;;;;;;25.33;25.33;25.20;43.40;;;;;;5014367;28;8822;-70
2021/09/20 00:26:10;;;;;;;;;28.00;28.00;25.20;44.10;;;;;;5014435;28;8958;-69
2021/09/20 00:28:36;;;;;;;;;33.00;32.00;25.20;45.50;;;;;;5014471;28;8787;-70
2021/09/20 00:31:02;;;;;;;;;26.67;26.67;25.00;45.60;;;;;;5013466;28;8765;-68
2021/09/20 00:33:28;;;;;;;;;27.00;27.00;25.00;45.50;;;;;;5014460;28;8816;-69
2021/09/20 00:35:54;;;;;;;;;38.00;34.67;25.00;45.80;;;;;;5014327;28;8791;-67
2021/09/20 00:38:20;;;;;;;;;35.00;33.00;24.90;46.80;;;;;;5014533;28;8814;-69
2021/09/20 00:40:46;;;;;;;;;38.67;35.67;24.90;47.20;;;;;;5013459;28;9446;-70
2021/09/20 00:43:12;;;;;;;;;42.33;37.33;24.90;46.80;;;;;;5014175;28;8788;-69
2021/09/20 00:45:38;;;;;;;;;36.67;34.33;24.90;47.10;;;;;;5014474;28;8784;-69
2021/09/20 00:48:03;;;;;;;;;38.00;35.00;24.90;47.10;;;;;;5018164;28;8791;-68
2021/09/20 00:50:29;;;;;;;;;37.67;35.00;24.90;46.90;;;;;;5017142;28;8776;-69
2021/09/20 00:52:55;;;;;;;;;39.00;35.67;24.90;47.10;;;;;;5017966;28;8776;-68
2021/09/20 00:55:22;;;;;;;;;40.00;36.67;24.90;47.00;;;;;;5018126;28;8764;-70
2021/09/20 00:57:48;;;;;;;;;38.00;35.00;24.80;46.70;;;;;;5017801;28;8776;-67
2021/09/20 01:00:15;;;;;;;;;38.67;35.33;24.80;47.40;;;;;;5016899;28;8776;-69
2021/09/20 01:02:41;;;;;;;;;36.33;34.00;24.80;47.30;;;;;;5017891;28;8907;-68
2021/09/20 01:05:07;;;;;;;;;38.67;35.33;24.80;47.40;;;;;;5017724;28;8863;-70
2021/09/20 01:07:34;;;;;;;;;42.00;37.00;24.70;47.20;;;;;;5018038;28;8780;-70
2021/09/20 01:10:00;;;;;;;;;37.67;34.67;24.70;47.80;;;;;;5016800;28;8796;-70
2021/09/20 01:12:27;;;;;;;;;32.33;31.67;24.80;47.80;;;;;;5017893;28;8869;-69
2021/09/20 01:14:58;;;;;;;;;34.67;33.00;24.80;47.60;;;;;;5017855;28;8783;-70
2021/09/20 01:17:24;;;;;;;;;38.00;35.33;24.80;47.40;;;;;;5017509;28;8871;-69
2021/09/20 01:19:50;;;;;;;;;35.33;33.33;24.80;47.50;;;;;;5017409;28;8776;-68
2021/09/20 01:22:20;;;;;;;;;37.33;34.67;24.80;47.30;;;;;;5017884;28;8796;-69
2021/09/20 01:24:47;;;;;;;;;37.00;34.67;24.80;47.20;;;;;;5017572;28;9547;-71
2021/09/20 01:27:14;;;;;;;;;40.67;37.67;24.90;47.10;;;;;;5017621;28;8784;-70
2021/09/20 01:29:40;;;;;;;;;38.00;35.33;24.80;47.30;;;;;;5017351;28;8772;-71
2021/09/20 01:32:07;;;;;;;;;35.67;34.00;24.80;47.60;;;;;;5017248;28;8795;-70
2021/09/20 01:34:34;;;;;;;;;35.33;32.33;24.80;47.80;;;;;;5017690;28;8796;-69
2021/09/20 01:37:01;;;;;;;;;41.00;36.67;24.70;48.10;;;;;;5017220;28;8922;-70
2021/09/20 01:39:30;;;;;;;;;37.67;34.33;24.70;48.20;;;;;;5017260;28;9425;-70
2021/09/20 01:41:57;;;;;;;;;39.00;35.33;24.70;48.30;;;;;;5017338;28;8779;-71
2021/09/20 01:44:23;;;;;;;;;38.67;35.67;24.70;47.90;;;;;;5017006;28;8791;-69
2021/09/20 01:46:51;;;;;;;;;38.33;35.33;24.60;47.90;;;;;;5017042;28;8791;-69
2021/09/20 01:49:18;;;;;;;;;42.00;37.00;24.60;47.30;;;;;;5017030;28;8819;-71
2021/09/20 01:51:45;;;;;;;;;39.33;36.33;24.50;46.90;;;;;;5016419;28;8757;-69
2021/09/20 01:54:11;;;;;;;;;36.00;33.67;24.50;46.70;;;;;;5016768;28;8796;-68
2021/09/20 01:56:38;;;;;;;;;40.67;37.00;24.50;46.50;;;;;;5017012;28;9576;-69
2021/09/20 01:59:04;;;;;;;;;37.67;34.67;24.50;46.20;;;;;;5016089;28;8780;-68
2021/09/20 02:01:31;;;;;;;;;34.00;32.67;24.40;46.50;;;;;;5016720;28;8757;-70
2021/09/20 02:03:57;;;;;;;;;33.67;32.67;24.50;46.20;;;;;;5016463;28;8832;-69
2021/09/20 02:06:24;;;;;;;;;36.00;34.33;24.50;45.70;;;;;;5015487;28;8811;-70
2021/09/20 02:08:52;;;;;;;;;39.67;36.67;24.60;45.60;;;;;;5016898;28;9461;-69
2021/09/20 02:11:19;;;;;;;;;38.00;35.00;24.50;45.80;;;;;;5016889;28;8857;-66
2021/09/20 02:13:45;;;;;;;;;37.00;34.67;24.50;45.40;;;;;;5016526;28;9695;-72
2021/09/20 02:16:11;;;;;;;;;35.67;34.33;24.60;45.40;;;;;;5016482;28;8811;-69
2021/09/20 02:18:39;;;;;;;;;36.00;33.67;24.50;45.40;;;;;;5015306;28;8792;-68
2021/09/20 02:21:09;;;;;;;;;38.67;35.00;24.50;46.10;;;;;;5016297;28;8794;-69
2021/09/20 02:23:36;;;;;;;;;41.00;37.00;24.50;46.20;;;;;;5016308;28;8831;-71
2021/09/20 02:26:02;;;;;;;;;42.33;37.00;24.40;45.90;;;;;;5016553;28;8768;-68
2021/09/20 02:28:28;;;;;;;;;42.33;38.00;24.50;46.00;;;;;;5015298;28;8803;-69
2021/09/20 02:30:54;;;;;;;;;39.00;36.00;24.50;46.10;;;;;;5016175;28;8788;-69
2021/09/20 02:33:20;;;;;;;;;43.67;38.67;24.40;45.80;;;;;;5016143;28;8926;-69
2021/09/20 02:35:46;;;;;;;;;39.33;36.00;24.30;46.10;;;;;;5016202;28;8748;-70
2021/09/20 02:38:12;;;;;;;;;40.33;36.33;24.20;46.70;;;;;;5015208;28;8773;-68
2021/09/20 02:40:38;;;;;;;;;43.67;38.00;24.10;47.00;;;;;;5016312;28;9339;-71
2021/09/20 02:43:04;;;;;;;;;40.67;37.00;24.20;47.10;;;;;;5015654;28;8816;-68
2021/09/20 02:45:30;;;;;;;;;41.67;36.33;24.20;47.10;;;;;;5016104;28;9458;-68
2021/09/20 02:47:56;;;;;;;;;37.33;34.67;24.30;47.20;;;;;;5015061;28;8898;-67
2021/09/20 02:50:22;;;;;;;;;42.33;37.33;24.30;47.10;;;;;;5016072;28;8894;-68
2021/09/20 02:52:48;;;;;;;;;46.67;40.67;24.20;47.40;;;;;;5015761;28;8757;-69
2021/09/20 02:55:14;;;;;;;;;47.00;40.75;24.30;47.50;;;;;;5015942;28;8784;-69
2021/09/20 02:57:40;;;;;;;;;47.00;40.67;24.30;47.40;;;;;;5014602;28;8764;-69
2021/09/20 03:00:07;;;;;;;;;43.67;37.67;24.30;47.50;;;;;;5015873;28;8780;-71
2021/09/20 03:02:33;;;;;;;;;44.33;38.00;24.30;47.30;;;;;;5015546;28;8779;-70
2021/09/20 03:04:59;;;;;;;;;46.00;40.67;24.30;47.10;;;;;;5015346;28;8878;-70
2021/09/20 03:07:25;;;;;;;;;39.33;36.00;24.30;47.20;;;;;;5009712;28;9469;-68
2021/09/20 03:09:51;;;;;;;;;41.67;37.33;24.30;47.10;;;;;;5014356;28;8804;-70
2021/09/20 03:12:16;;;;;;;;;42.00;37.33;24.20;47.10;;;;;;5015407;28;8784;-68
2021/09/20 03:14:42;;;;;;;;;44.00;38.67;24.00;48.00;;;;;;5015339;28;8791;-69
2021/09/20 03:17:08;;;;;;;;;43.67;38.67;24.00;48.20;;;;;;5015315;28;8804;-69
2021/09/20 03:19:34;;;;;;;;;43.00;37.67;24.00;48.40;;;;;;5014342;28;8874;-71
2021/09/20 03:21:59;;;;;;;;;44.67;38.67;24.00;48.70;;;;;;5015426;28;8780;-69
2021/09/20 03:24:25;;;;;;;;;45.67;39.33;24.00;48.90;;;;;;5015075;28;8828;-70
2021/09/20 03:26:52;;;;;;;;;51.00;44.00;24.00;48.90;;;;;;5015202;28;8776;-68
2021/09/20 03:29:18;;;;;;;;;48.00;42.00;23.80;49.30;;;;;;5013929;28;8823;-68
2021/09/20 03:31:44;;;;;;;;;46.75;40.50;23.70;49.70;;;;;;5014884;28;8792;-70
2021/09/20 03:34:10;;;;;;;;;44.67;39.00;23.80;49.60;;;;;;5015412;28;8800;-69
2021/09/20 03:36:35;;;;;;;;;48.67;41.00;23.80;49.70;;;;;;5014994;28;8784;-68
2021/09/20 03:39:02;;;;;;;;;46.33;40.33;23.80;49.90;;;;;;5013585;28;8796;-68
2021/09/20 03:41:27;;;;;;;;;47.00;40.00;23.60;50.30;;;;;;5015156;28;8820;-67
2021/09/20 03:43:53;;;;;;;;;45.33;40.00;23.50;50.70;;;;;;5014832;28;8812;-69
2021/09/20 03:46:19;;;;;;;;;43.67;39.00;23.60;50.60;;;;;;5015114;28;8807;-67
2021/09/20 03:48:45;;;;;;;;;39.33;36.33;23.50;50.70;;;;;;5014175;28;8804;-68
2021/09/20 03:51:11;;;;;;;;;41.33;37.00;23.50;50.60;;;;;;5015060;28;8875;-69
2021/09/20 03:53:36;;;;;;;;;40.67;36.67;23.60;50.50;;;;;;5014704;28;9332;-68
2021/09/20 03:56:03;;;;;;;;;42.00;37.00;23.70;50.30;;;;;;5014232;28;8795;-68
2021/09/20 03:58:29;;;;;;;;;38.00;35.00;23.70;50.10;;;;;;5009937;28;9529;-68
2021/09/20 04:00:55;;;;;;;;;40.33;36.67;23.70;50.00;;;;;;5014566;28;8768;-69
2021/09/20 04:03:20;;;;;;;;;40.67;37.00;23.70;49.80;;;;;;5014736;28;8946;-68
2021/09/20 04:05:46;;;;;;;;;45.00;39.67;23.60;50.20;;;;;;5014521;28;8800;-68
2021/09/20 04:08:15;;;;;;;;;40.00;36.67;23.60;50.40;;;;;;5013565;28;8834;-66
2021/09/20 04:10:42;;;;;;;;;43.33;38.00;23.60;50.50;;;;;;5014601;28;8773;-68
2021/09/20 04:13:08;;;;;;;;;37.00;34.33;23.70;50.30;;;;;;5014508;28;8788;-69
2021/09/20 04:15:35;;;;;;;;;42.33;38.33;23.70;50.90;;;;;;5014461;28;8787;-70
2021/09/20 04:18:01;;;;;;;;;42.00;37.67;23.80;49.70;;;;;;5013610;28;8792;-68
2021/09/20 04:20:27;;;;;;;;;39.33;35.33;23.70;49.70;;;;;;5014454;28;8811;-68
2021/09/20 04:22:53;;;;;;;;;39.33;35.00;23.80;49.70;;;;;;5017995;28;8898;-67
2021/09/20 04:25:19;;;;;;;;;40.00;36.67;23.80;49.70;;;;;;5018521;28;8787;-68
2021/09/20 04:27:44;;;;;;;;;45.00;39.00;23.60;49.70;;;;;;5017457;28;8792;-69
2021/09/20 04:30:11;;;;;;;;;41.67;37.67;23.60;50.10;;;;;;5017989;28;8784;-67
2021/09/20 04:32:37;;;;;;;;;44.67;38.33;23.70;50.20;;;;;;5017934;28;8812;-67
2021/09/20 04:35:04;;;;;;;;;48.67;42.33;23.70;50.00;;;;;;5018253;28;8918;-70
2021/09/20 04:37:29;;;;;;;;;50.00;43.00;23.70;50.20;;;;;;5017021;28;8788;-70
2021/09/20 04:39:55;;;;;;;;;46.67;40.33;23.60;50.20;;;;;;5016916;28;8819;-67
2021/09/20 04:42:21;;;;;;;;;48.33;42.33;23.60;50.50;;;;;;5016841;28;8777;-68
2021/09/20 04:44:47;;;;;;;;;47.50;41.50;23.60;51.00;;;;;;5017161;28;8912;-66
2021/09/20 04:47:13;;;;;;;;;44.33;39.00;23.60;51.40;;;;;;5015119;28;8827;-66
2021/09/20 04:49:39;;;;;;;;;40.33;36.33;23.60;51.10;;;;;;5023136;28;8822;-67
2021/09/20 04:52:05;;;;;;;;;45.67;39.67;23.60;51.10;;;;;;5016650;28;8780;-67
2021/09/20 04:54:31;;;;;;;;;46.67;40.67;23.50;51.00;;;;;;5018233;28;8752;-67
2021/09/20 04:56:56;;;;;;;;;45.67;40.00;23.50;51.60;;;;;;5017043;28;9470;-67
2021/09/20 04:59:22;;;;;;;;;46.25;40.00;23.60;51.60;;;;;;5018054;28;8764;-66
2021/09/20 05:01:48;;;;;;;;;46.75;39.75;23.60;51.00;;;;;;5018072;28;8866;-67
2021/09/20 05:04:14;;;;;;;;;46.75;40.00;23.60;51.30;;;;;;5017559;28;8840;-67
2021/09/20 05:06:40;;;;;;;;;44.75;38.50;23.50;51.60;;;;;;5017129;28;8804;-67
2021/09/20 05:09:07;;;;;;;;;45.50;38.75;23.60;51.80;;;;;;5017651;28;8795;-67
2021/09/20 05:11:33;;;;;;;;;44.33;38.33;23.60;51.80;;;;;;5017804;28;9474;-66
2021/09/20 05:13:59;;;;;;;;;26.33;26.33;23.70;50.60;;;;;;5015303;28;8910;-66
2021/09/20 05:16:25;;;;;;;;;21.33;21.33;23.70;48.60;;;;;;5013533;28;8942;-66
2021/09/20 05:18:50;;;;;;;;;18.00;18.00;23.70;47.70;;;;;;5016191;28;8792;-67
2021/09/20 05:21:16;;;;;;;;;15.33;15.33;23.60;46.40;;;;;;5015995;28;8817;-66
2021/09/20 05:23:44;;;;;;;;;15.00;15.00;23.70;46.20;;;;;;5017082;28;8804;-66
2021/09/20 05:26:11;;;;;;;;;11.67;11.67;23.70;45.60;;;;;;5017159;28;8769;-67
2021/09/20 05:28:37;;;;;;;;;29.00;29.00;23.70;44.60;;;;;;5017321;28;8772;-66
2021/09/20 05:31:02;;;;;;;;;40.33;36.67;23.60;46.80;;;;;;5015615;28;8842;-66
2021/09/20 05:33:33;;;;;;;;;53.50;46.25;23.50;49.20;;;;;;5011238;28;8818;-69
2021/09/20 05:35:59;;;;;;;;;58.50;49.25;23.50;50.40;;;;;;5022106;28;8780;-69
2021/09/20 05:38:25;;;;;;;;;51.50;44.25;23.50;50.10;;;;;;5017036;28;8865;-68
2021/09/20 05:40:51;;;;;;;;;42.33;38.00;23.40;50.40;;;;;;5015467;28;8882;-68
2021/09/20 05:43:16;;;;;;;;;43.00;38.00;23.10;51.30;;;;;;5026340;28;8816;-69
2021/09/20 05:45:42;;;;;;;;;38.67;35.67;23.10;51.40;;;;;;5016067;28;8826;-69
2021/09/20 05:48:08;;;;;;;;;41.67;37.33;23.30;51.10;;;;;;5016230;28;8794;-68
2021/09/20 05:50:34;;;;;;;;;41.67;36.67;23.30;51.00;;;;;;5015368;28;8787;-67
2021/09/20 05:53:01;;;;;;;;;33.67;32.67;23.30;51.20;;;;;;5015644;28;8792;-70
2021/09/20 05:55:27;;;;;;;;;37.33;34.67;23.40;50.00;;;;;;5016908;28;8792;-68
2021/09/20 05:57:53;;;;;;;;;29.33;29.33;23.40;50.10;;;;;;5014916;28;8803;-68
2021/09/20 06:00:19;;;;;;;;;31.67;31.67;23.30;50.10;;;;;;5014456;28;8791;-68
2021/09/20 06:02:45;;;;;;;;;29.00;29.00;23.40;50.10;;;;;;5014995;28;8886;-66
2021/09/20 06:05:15;;;;;;;;;27.33;27.33;23.60;50.70;;;;;;5015532;28;8946;-68
2021/09/20 06:07:42;;;;;;;;;24.67;24.67;23.50;49.50;;;;;;5011976;28;8870;-67
2021/09/20 06:10:09;;;;;;;;;24.33;24.33;23.60;49.00;;;;;;5016919;28;8808;-66
2021/09/20 06:12:35;;;;;;;;;23.67;23.67;23.50;49.10;;;;;;5013380;28;8862;-68
2021/09/20 06:15:01;;;;;;;;;27.67;27.67;23.50;49.20;;;;;;5013213;28;8788;-68
2021/09/20 06:17:27;;;;;;;;;29.67;29.67;23.40;49.10;;;;;;5014874;28;8804;-69
2021/09/20 06:19:53;;;;;;;;;31.33;31.33;23.40;49.60;;;;;;5015736;28;8798;-69
2021/09/20 06:22:19;;;;;;;;;29.33;29.33;23.50;49.90;;;;;;5015763;28;8784;-63
2021/09/20 06:24:45;;;;;;;;;24.67;24.67;23.60;49.50;;;;;;5014195;28;8973;-66
2021/09/20 06:27:11;;;;;;;;;24.33;24.33;23.50;49.60;;;;;;5016660;28;9446;-66
2021/09/20 06:29:37;;;;;;;;;19.33;19.33;23.60;48.90;;;;;;5016029;28;8894;-67
2021/09/20 06:32:03;;;;;;;;;18.33;18.33;23.70;47.20;;;;;;5015929;28;9842;-66
2021/09/20 06:34:29;;;;;;;;;16.67;16.67;23.80;46.80;;;;;;5015172;28;8816;-68
2021/09/20 06:36:55;;;;;;;;;13.33;13.33;23.80;46.30;;;;;;5016226;28;8788;-66
2021/09/20 06:39:21;;;;;;;;;21.33;21.33;23.80;46.20;;;;;;5014333;28;8835;-66
2021/09/20 06:41:46;;;;;;;;;20.67;20.67;23.70;45.50;;;;;;5014621;28;8863;-66
2021/09/20 06:44:12;;;;;;;;;16.33;16.33;23.60;47.20;;;;;;5014077;28;8836;-68
2021/09/20 06:46:38;;;;;;;;;21.33;21.33;23.30;48.00;;;;;;5012834;28;8815;-65
2021/09/20 06:49:05;;;;;;;;;17.33;17.33;23.00;48.70;;;;;;5015282;28;8783;-67
2021/09/20 06:51:32;;;;;;;;;16.67;16.67;23.00;49.50;;;;;;5015359;28;8788;-65
2021/09/20 06:53:58;;;;;;;;;12.67;12.67;22.80;49.30;;;;;;5014305;28;8810;-65
2021/09/20 06:56:24;;;;;;;;;17.00;17.00;23.00;49.20;;;;;;5015039;28;8808;-65
2021/09/20 06:58:50;;;;;;;;;18.00;16.67;22.90;48.60;;;;;;5015526;28;9453;-65
2021/09/20 07:01:16;;;;;;;;;15.00;14.67;22.80;48.70;;;;;;5015329;28;8790;-67
2021/09/20 07:03:43;;;;;;;;;15.67;15.67;22.70;48.80;;;;;;5013560;28;9482;-68
2021/09/20 07:06:09;;;;;;;;;14.33;14.33;22.70;48.40;;;;;;5015026;28;8883;-66
2021/09/20 07:08:35;;;;;;;;;14.33;14.33;22.70;48.80;;;;;;5014791;28;8780;-65
2021/09/20 07:11:01;;;;;;;;;14.33;14.33;22.60;48.60;;;;;;5014884;28;8815;-64
2021/09/20 07:13:28;;;;;;;;;16.33;16.33;22.60;49.30;;;;;;5013789;28;8821;-66
2021/09/20 07:15:54;;;;;;;;;18.67;17.67;22.50;49.40;;;;;;5014330;28;8865;-66
2021/09/20 07:18:20;;;;;;;;;16.00;16.00;22.50;50.10;;;;;;5015148;28;8784;-66
2021/09/20 07:20:46;;;;;;;;;15.00;15.00;22.30;49.70;;;;;;5014799;28;8792;-65
2021/09/20 07:23:13;;;;;;;;;18.00;18.00;22.30;49.80;;;;;;5013367;28;8792;-65
2021/09/20 07:25:39;;;;;;;;;14.00;14.00;22.30;49.80;;;;;;5015245;28;8882;-65
2021/09/20 07:28:05;;;;;;;;;14.00;14.00;22.30;49.80;;;;;;5015104;28;8806;-67
2021/09/20 07:30:32;;;;;;;;;10.67;10.67;22.20;49.50;;;;;;5014924;28;8871;-67
2021/09/20 07:32:58;;;;;;;;;19.33;19.33;21.90;49.80;;;;;;5012739;28;9430;-66
2021/09/20 07:35:25;;;;;;;;;15.67;15.67;21.90;50.40;;;;;;5009977;28;8815;-65
2021/09/20 07:37:53;;;;;;;;;20.00;20.00;21.80;49.80;;;;;;5013773;28;8776;-67
2021/09/20 07:40:23;;;;;;;;;20.67;20.67;21.70;50.20;;;;;;5014816;28;8776;-68
2021/09/20 07:42:51;;;;;;;;;20.00;20.00;21.70;50.40;;;;;;5011550;28;8788;-65
2021/09/20 07:45:17;;;;;;;;;21.33;21.33;21.60;50.60;;;;;;5013430;28;8819;-65
2021/09/20 07:47:43;;;;;;;;;24.00;24.00;21.70;50.30;;;;;;5013044;28;8784;-66
2021/09/20 07:50:10;;;;;;;;;27.67;27.67;21.60;50.20;;;;;;5013545;28;8788;-65
2021/09/20 07:52:36;;;;;;;;;24.33;24.33;21.50;50.50;;;;;;5013695;28;8874;-64
2021/09/20 07:55:05;;;;;;;;;27.67;27.67;21.70;50.20;;;;;;5014667;28;8873;-67
2021/09/20 07:57:32;;;;;;;;;24.33;24.33;21.80;49.80;;;;;;5014373;28;9654;-66
2021/09/20 07:59:58;;;;;;;;;32.67;32.67;21.90;49.80;;;;;;5013987;28;8811;-65
2021/09/20 08:02:24;;;;;;;;;32.67;31.67;21.90;48.90;;;;;;5013949;28;8804;-65
2021/09/20 08:04:50;;;;;;;;;32.33;31.67;22.00;48.20;;;;;;5012727;28;8852;-67
2021/09/20 08:07:16;;;;;;;;;33.33;32.33;22.00;48.00;;;;;;5013490;28;8791;-66
2021/09/20 08:09:42;;;;;;;;;23.33;22.33;21.80;48.10;;;;;;5011339;28;8849;-66
2021/09/20 08:12:09;;;;;;;;;33.33;32.33;21.70;48.20;;;;;;5012707;28;8792;-66
2021/09/20 08:14:35;;;;;;;;;32.67;32.33;21.60;48.40;;;;;;5012715;28;8799;-67
2021/09/20 08:17:01;;;;;;;;;30.67;30.67;21.40;48.80;;;;;;5012938;28;8776;-67
2021/09/20 08:19:27;;;;;;;;;33.33;32.00;21.40;48.60;;;;;;5012853;28;8804;-65
2021/09/20 08:21:53;;;;;;;;;23.33;23.33;21.40;49.30;;;;;;5014086;28;8803;-68
2021/09/20 08:24:19;;;;;;;;;30.00;30.00;21.20;49.50;;;;;;5010986;28;9466;-66
2021/09/20 08:26:46;;;;;;;;;32.00;31.00;21.10;49.70;;;;;;5013434;28;8854;-66
2021/09/20 08:29:11;;;;;;;;;30.00;30.00;21.00;50.40;;;;;;5014063;28;8772;-65
2021/09/20 08:31:37;;;;;;;;;30.00;30.00;21.10;50.60;;;;;;5014219;28;8812;-66
2021/09/20 08:34:04;;;;;;;;;26.00;26.00;21.10;50.40;;;;;;5012381;28;8808;-65
2021/09/20 08:36:31;;;;;;;;;22.67;22.67;21.00;50.40;;;;;;5012866;28;8791;-65
2021/09/20 08:38:57;;;;;;;;;21.67;21.67;20.90;51.00;;;;;;5013902;28;8810;-66
2021/09/20 08:41:23;;;;;;;;;24.33;24.33;20.80;51.30;;;;;;5014427;28;8840;-65
2021/09/20 08:43:48;;;;;;;;;22.33;22.33;20.70;51.90;;;;;;5013789;28;8820;-67
2021/09/20 08:46:14;;;;;;;;;21.33;21.33;20.50;52.00;;;;;;5013929;28;9423;-66
2021/09/20 08:48:44;;;;;;;;;19.00;19.00;20.40;52.50;;;;;;5013095;28;8800;-67
2021/09/20 08:51:12;;;;;;;;;19.00;19.00;20.40;52.20;;;;;;5014246;28;8803;-65
2021/09/20 08:53:39;;;;;;;;;18.33;18.33;20.50;52.30;;;;;;5014149;28;8850;-65
2021/09/20 08:56:06;;;;;;;;;17.33;17.33;20.50;51.90;;;;;;5009964;28;8804;-67
2021/09/20 08:58:32;;;;;;;;;16.33;16.33;20.30;51.90;;;;;;5012591;28;8846;-65
2021/09/20 09:00:59;;;;;;;;;14.67;14.67;20.20;52.10;;;;;;5013394;28;8780;-67
2021/09/20 09:03:27;;;;;;;;;19.00;17.33;20.20;52.40;;;;;;5012268;28;9502;-66
2021/09/20 09:05:53;;;;;;;;;13.00;13.00;20.10;52.70;;;;;;5014262;28;8889;-65
2021/09/20 09:08:32;;;;;;;;;12.00;12.00;20.10;52.40;;;;;;5016812;28;8788;-67
2021/09/20 09:11:01;;;;;;;;;16.67;16.67;20.10;52.50;;;;;;5016891;28;8792;-65
2021/09/20 09:13:36;;;;;;;;;15.67;15.67;20.20;52.30;;;;;;5005106;28;8788;-67
2021/09/20 09:16:16;;;;;;;;;16.33;16.33;20.10;52.40;;;;;;5016950;28;8776;-67
2021/09/20 09:19:02;;;;;;;;;15.67;15.67;20.30;52.00;;;;;;5017565;28;8783;-66
2021/09/20 09:21:32;;;;;;;;;16.00;16.00;20.00;51.90;;;;;;5017331;28;8887;-66
2021/09/20 09:24:06;;;;;;;;;17.00;17.00;19.80;52.60;;;;;;5016366;28;8872;-67
2021/09/20 09:26:33;;;;;;;;;16.00;16.00;19.70;52.60;;;;;;5017515;28;8776;-65
2021/09/20 09:29:12;;;;;;;;;12.67;12.67;19.90;52.30;;;;;;5016185;28;8818;-65
2021/09/20 09:31:40;;;;;;;;;11.67;11.67;19.90;52.20;;;;;;5017317;28;8824;-65
2021/09/20 09:34:21;;;;;;;;;13.33;13.33;20.00;51.90;;;;;;5013442;28;8842;-71
2021/09/20 09:36:47;;;;;;;;;11.00;11.00;20.30;51.40;;;;;;5012066;28;8768;-63
2021/09/20 09:39:14;;;;;;;;;13.00;13.00;20.20;51.10;;;;;;5015333;28;8784;-65
2021/09/20 09:41:44;;;;;;;;;10.00;10.00;20.20;50.80;;;;;;5022264;28;8804;-66
2021/09/20 09:44:12;;;;;;;;;13.00;13.00;20.20;51.00;;;;;;5015916;28;8902;-66
2021/09/20 09:46:41;;;;;;;;;14.33;14.33;20.20;51.50;;;;;;5007667;28;9430;-63
2021/09/20 09:49:19;;;;;;;;;16.33;16.33;20.20;51.10;;;;;;5012726;28;9056;-63
2021/09/20 09:52:00;;;;;;;;;10.67;10.67;20.40;51.00;;;;;;5013652;28;8819;-63
2021/09/20 09:54:33;;;;;;;;;16.00;16.00;20.40;50.50;;;;;;5017186;28;8781;-64
2021/09/20 09:57:14;;;;;;;;;15.00;15.00;20.50;50.40;;;;;;5016941;28;8772;-63
2021/09/20 09:59:41;;;;;;;;;9.67;9.67;20.40;49.90;;;;;;5016188;28;8800;-63
2021/09/20 10:02:19;;;;;;;;;12.00;12.00;20.30;50.00;;;;;;5028724;28;8836;-66
2021/09/20 10:05:12;;;;;;;;;11.00;11.00;20.40;50.50;;;;;;5015585;28;8953;-66
2021/09/20 10:07:46;;;;;;;;;11.00;11.00;20.30;49.70;;;;;;5015703;28;8800;-67
2021/09/20 10:10:22;;;;;;;;;14.67;14.67;20.10;49.80;;;;;;5015780;28;8784;-67
2021/09/20 10:12:50;;;;;;;;;16.33;16.33;20.40;50.10;;;;;;5015776;28;8816;-66
2021/09/20 10:15:19;;;;;;;;;16.00;16.00;20.60;49.70;;;;;;5015961;28;8814;-67
2021/09/20 10:17:46;;;;;;;;;8.00;8.00;20.60;48.70;;;;;;5013528;28;8807;-67
2021/09/20 10:20:14;;;;;;;;;14.00;14.00;20.60;48.30;;;;;;5015564;28;8814;-66
2021/09/20 10:22:41;;;;;;;;;15.00;15.00;20.40;48.30;;;;;;5014783;28;8791;-69
2021/09/20 10:25:09;;;;;;;;;12.33;12.33;20.50;48.80;;;;;;5015129;28;8823;-68
2021/09/20 10:27:38;;;;;;;;;11.00;11.00;20.60;48.70;;;;;;5015933;28;8776;-69
2021/09/20 10:30:09;;;;;;;;;10.67;10.67;20.80;48.10;;;;;;5015898;28;8897;-69
2021/09/20 10:32:37;;;;;;;;;14.67;14.67;20.70;47.70;;;;;;5016472;28;8787;-67
2021/09/20 10:35:41;;;;;;;;;14.33;14.33;20.90;47.80;;;;;;5020364;28;9556;-69
2021/09/20 10:38:21;;;;;;;;;13.67;13.67;20.60;47.50;;;;;;5010947;28;8789;-66
2021/09/20 10:41:24;;;;;;;;;15.00;15.00;20.80;47.90;;;;;;5015513;28;8810;-66
2021/09/20 10:44:06;;;;;;;;;12.00;12.00;20.90;47.40;;;;;;4992837;28;8865;-66
2021/09/20 10:46:34;;;;;;;;;15.00;15.00;20.80;47.40;;;;;;4991903;28;8917;-65
2021/09/20 10:49:03;;;;;;;;;13.33;13.33;20.50;47.90;;;;;;4991815;28;8771;-67
2021/09/20 10:51:29;;;;;;;;;12.33;12.33;20.70;48.10;;;;;;4990256;28;8763;-64
2021/09/20 10:54:11;;;;;;;;;15.00;15.00;20.60;48.00;;;;;;4992686;28;8805;-65
2021/09/20 10:56:38;;;;;;;;;12.67;12.67;20.60;48.30;;;;;;4990818;28;9484;-64
2021/09/20 10:59:09;;;;;;;;;12.33;12.33;20.60;47.80;;;;;;4991717;28;9046;-63
2021/09/20 11:01:39;;;;;;;;;13.33;13.33;20.30;48.00;;;;;;4992713;28;8770;-64
2021/09/20 11:04:14;;;;;;;;;13.00;13.00;20.40;48.20;;;;;;4981296;28;8848;-63
2021/09/20 11:06:41;;;;;;;;;13.00;13.00;20.10;48.50;;;;;;4992472;28;8783;-65
2021/09/20 11:09:07;;;;;;;;;15.00;15.00;20.00;48.90;;;;;;4992701;28;8918;-65
2021/09/20 11:14:15;;;;;;;;;15.00;15.00;20.40;49.20;;;;;;4993783;28;8771;-64
2021/09/20 11:16:51;;;;;;;;;17.00;17.00;20.40;48.80;;;;;;4993551;28;9322;-65
2021/09/20 11:19:31;;;;;;;;;14.00;14.00;20.50;48.00;;;;;;5002857;28;8817;-63
2021/09/20 11:22:05;;;;;;;;;12.00;12.00;20.50;47.70;;;;;;5015092;28;8800;-64
2021/09/20 11:24:56;;;;;;;;;9.67;9.67;20.60;47.90;;;;;;5015098;28;8792;-63
2021/09/20 11:27:36;;;;;;;;;16.33;16.33;20.70;47.40;;;;;;5009570;28;8865;-70
2021/09/20 11:30:24;;;;;;;;;15.67;15.67;20.90;47.30;;;;;;5013375;28;8776;-71
2021/09/20 11:33:00;;;;;;;;;15.33;15.33;20.90;46.90;;;;;;5014102;28;8796;-68
2021/09/20 11:35:29;;;;;;;;;14.33;14.33;21.10;47.00;;;;;;5015104;28;8803;-68
2021/09/20 11:37:57;;;;;;;;;16.00;16.00;21.20;46.60;;;;;;5014969;28;8764;-64
2021/09/20 11:40:26;;;;;;;;;15.67;15.67;21.20;46.40;;;;;;5014028;28;8791;-69
2021/09/20 11:43:01;;;;;;;;;18.00;18.00;21.10;46.30;;;;;;5015007;28;9488;-63
2021/09/20 11:45:30;;;;;;;;;16.33;16.33;21.10;46.30;;;;;;5015094;28;8815;-63
2021/09/20 11:47:59;;;;;;;;;17.00;17.00;21.10;46.30;;;;;;5014901;28;8878;-62
2021/09/20 11:50:31;;;;;;;;;12.00;12.00;21.20;46.10;;;;;;5013893;28;8792;-61
2021/09/20 11:53:00;;;;;;;;;17.00;17.00;21.20;45.90;;;;;;5014607;28;8771;-60
2021/09/20 11:55:32;;;;;;;;;18.33;18.33;21.20;46.20;;;;;;5013732;28;8784;-63
2021/09/20 11:58:00;;;;;;;;;16.33;16.33;21.20;45.60;;;;;;5012798;28;8869;-62
2021/09/20 12:00:31;;;;;;;;;14.00;14.00;21.20;45.90;;;;;;5013329;28;8772;-62
2021/09/20 12:02:59;;;;;;;;;12.00;12.00;21.30;45.80;;;;;;5013584;28;9267;-60
2021/09/20 12:05:36;;;;;;;;;14.00;14.00;21.30;45.30;;;;;;5012332;28;8958;-61
2021/09/20 12:08:09;;;;;;;;;9.00;9.00;21.40;45.20;;;;;;5012516;28;9427;-64
2021/09/20 12:10:44;;;;;;;;;11.33;11.33;21.50;44.70;;;;;;5014765;28;9450;-62
2021/09/20 12:13:15;;;;;;;;;16.67;16.67;21.30;44.90;;;;;;5012067;28;8779;-61
2021/09/20 12:15:44;;;;;;;;;16.00;16.00;21.30;44.90;;;;;;5012681;28;9547;-63
2021/09/20 12:18:15;;;;;;;;;12.00;12.00;21.40;45.40;;;;;;5013221;28;8791;-69
2021/09/20 12:20:51;;;;;;;;;8.67;8.67;21.50;45.20;;;;;;5014526;28;8783;-73
2021/09/20 12:23:20;;;;;;;;;12.00;12.00;21.70;44.90;;;;;;5014245;28;8780;-69
2021/09/20 12:25:46;;;;;;;;;10.00;10.00;21.70;44.50;;;;;;5014411;28;8788;-60
2021/09/20 12:28:20;;;;;;;;;12.67;12.67;21.80;44.70;;;;;;5014574;28;8887;-59
2021/09/20 12:30:56;;;;;;;;;11.67;11.67;21.90;45.30;;;;;;5012329;28;8768;-61
2021/09/20 12:33:23;;;;;;;;;8.67;8.67;21.90;44.00;;;;;;5011436;28;8943;-62
2021/09/20 12:35:48;;;;;;;;;9.00;9.00;22.00;44.00;;;;;;5012864;28;8862;-61
2021/09/20 12:38:22;;;;;;;;;5.67;5.67;22.10;43.40;;;;;;5012836;28;8784;-60
2021/09/20 12:40:50;;;;;;;;;7.33;7.33;22.00;43.30;;;;;;5009950;28;8907;-61
2021/09/20 12:43:32;;;;;;;;;5.00;5.00;22.10;43.20;;;;;;5014477;28;8788;-60
2021/09/20 12:46:08;;;;;;;;;6.00;6.00;21.90;43.20;;;;;;5014708;28;8822;-71